createdAt,value
2018-12-25T00:02:28.589Z,4.00
2018-12-25T00:04:57.378Z,4.10
2018-12-25T00:07:26.104Z,4.00
2018-12-25T00:09:54.877Z,4.00
2018-12-25T00:12:23.649Z,4.00
2018-12-25T00:14:52.459Z,4.00
2018-12-25T00:17:21.200Z,4.10
2018-12-25T00:19:49.968Z,4.00
2018-12-25T00:22:18.789Z,4.10
2018-12-25T00:24:47.543Z,4.10
2018-12-25T00:27:16.318Z,4.10
2018-12-25T00:29:45.101Z,4.10
2018-12-25T00:32:13.861Z,4.20
2018-12-25T00:34:42.667Z,4.10
2018-12-25T00:37:11.489Z,4.20
2018-12-25T00:39:40.229Z,4.20
2018-12-25T00:42:09.427Z,4.20
2018-12-25T00:44:38.260Z,4.20
2018-12-25T00:47:07.342Z,4.20
2018-12-25T00:49:36.510Z,4.20
2018-12-25T00:52:05.657Z,4.20
2018-12-25T00:54:34.461Z,4.20
2018-12-25T00:57:03.213Z,4.20
2018-12-25T00:59:31.981Z,4.20
2018-12-25T01:02:02.238Z,4.20
2018-12-25T01:04:31.192Z,4.20
2018-12-25T01:06:59.992Z,4.20
2018-12-25T01:09:28.834Z,4.20
2018-12-25T01:11:57.743Z,4.20
2018-12-25T01:14:26.518Z,4.20
2018-12-25T01:16:55.305Z,4.20
2018-12-25T01:19:24.097Z,4.20
2018-12-25T01:21:52.887Z,4.20
2018-12-25T01:24:21.633Z,4.20
2018-12-25T01:26:50.462Z,4.20
2018-12-25T01:29:19.278Z,4.20
2018-12-25T01:31:48.045Z,4.20
2018-12-25T01:34:16.791Z,4.20
2018-12-25T01:36:45.535Z,4.20
2018-12-25T01:39:14.305Z,4.20
2018-12-25T01:41:43.354Z,4.10
2018-12-25T01:44:12.127Z,4.10
2018-12-25T01:46:40.881Z,4.10
2018-12-25T01:49:09.612Z,4.10
2018-12-25T01:51:38.391Z,4.10
2018-12-25T01:54:07.201Z,4.10
2018-12-25T01:56:35.960Z,4.10
2018-12-25T01:59:04.703Z,4.20
2018-12-25T02:01:33.465Z,4.20
2018-12-25T02:04:02.244Z,4.10
2018-12-25T02:06:31.045Z,4.20
2018-12-25T02:08:59.822Z,4.20
2018-12-25T02:11:28.933Z,4.20
2018-12-25T02:13:57.673Z,4.30
2018-12-25T02:16:26.401Z,4.30
2018-12-25T02:18:55.156Z,4.30
2018-12-25T02:21:23.929Z,4.30
2018-12-25T02:23:52.770Z,4.30
2018-12-25T02:26:21.561Z,4.40
2018-12-25T02:28:50.368Z,4.40
2018-12-25T02:31:19.179Z,4.40
2018-12-25T02:33:47.992Z,4.50
2018-12-25T02:36:16.765Z,4.50
2018-12-25T02:38:45.602Z,4.50
2018-12-25T02:41:14.415Z,4.50
2018-12-25T02:43:44.622Z,4.40
2018-12-25T02:46:13.372Z,4.40
2018-12-25T02:48:43.566Z,4.40
2018-12-25T02:51:12.372Z,4.50
2018-12-25T02:53:41.110Z,4.50
2018-12-25T02:56:09.878Z,4.50
2018-12-25T02:58:38.641Z,4.50
2018-12-25T03:01:07.428Z,4.50
2018-12-25T03:03:36.193Z,4.50
2018-12-25T03:06:04.988Z,4.50
2018-12-25T03:08:33.820Z,4.60
2018-12-25T03:11:02.585Z,4.60
2018-12-25T03:13:31.394Z,4.60
2018-12-25T03:16:00.220Z,4.50
2018-12-25T03:18:28.957Z,4.50
2018-12-25T03:20:57.963Z,4.50
2018-12-25T03:23:26.733Z,4.50
2018-12-25T03:25:55.460Z,4.50
2018-12-25T03:28:24.242Z,4.50
2018-12-25T03:30:52.999Z,4.50
2018-12-25T03:33:21.754Z,4.60
2018-12-25T03:35:50.564Z,4.60
2018-12-25T03:38:19.304Z,4.70
2018-12-25T03:40:48.050Z,4.80
2018-12-25T03:43:16.816Z,4.80
2018-12-25T03:45:45.586Z,4.80
2018-12-25T03:48:14.400Z,4.70
2018-12-25T03:50:43.246Z,4.70
2018-12-25T03:53:12.325Z,4.70
2018-12-25T03:55:41.082Z,4.70
2018-12-25T03:58:09.855Z,4.70
2018-12-25T04:00:38.622Z,4.70
2018-12-25T04:03:07.341Z,4.70
2018-12-25T04:05:36.090Z,4.70
2018-12-25T04:08:04.859Z,4.60
2018-12-25T04:10:33.955Z,4.70
2018-12-25T04:13:03.174Z,4.70
2018-12-25T04:15:31.931Z,4.70
2018-12-25T04:18:00.715Z,4.70
2018-12-25T04:20:29.558Z,4.70
2018-12-25T04:22:58.292Z,4.70
2018-12-25T04:25:27.032Z,4.70
2018-12-25T04:27:55.835Z,4.80
2018-12-25T04:30:24.548Z,4.80
2018-12-25T04:32:53.323Z,4.70
2018-12-25T04:35:22.093Z,4.70
2018-12-25T04:37:50.873Z,4.70
2018-12-25T04:40:19.605Z,4.70
2018-12-25T04:42:48.357Z,4.70
2018-12-25T04:45:17.093Z,4.70
2018-12-25T04:47:45.879Z,4.70
2018-12-25T04:50:14.635Z,4.70
2018-12-25T04:52:43.380Z,4.70
2018-12-25T04:55:12.104Z,4.70
2018-12-25T04:57:40.866Z,4.70
2018-12-25T05:00:10.019Z,4.70
2018-12-25T05:02:38.901Z,4.70
2018-12-25T05:05:07.700Z,4.70
2018-12-25T05:07:36.446Z,4.70
2018-12-25T05:10:06.174Z,4.70
2018-12-25T05:12:35.029Z,4.70
2018-12-25T05:15:04.494Z,4.70
2018-12-25T05:17:33.274Z,4.70
2018-12-25T05:20:02.075Z,4.70
2018-12-25T05:22:30.810Z,4.60
2018-12-25T05:24:59.552Z,4.60
2018-12-25T05:27:47.750Z,4.50
2018-12-25T05:41:47.101Z,4.40
2018-12-25T07:00:26.806Z,4.40
2018-12-25T07:24:14.404Z,4.60
2018-12-25T08:47:47.126Z,4.70
2018-12-25T09:53:10.479Z,5.30
2018-12-25T09:55:52.228Z,5.30
2018-12-25T10:07:32.498Z,5.60
2018-12-25T10:37:06.933Z,5.70
2018-12-25T11:09:53.550Z,6.10
2018-12-25T11:12:35.014Z,6.10
2018-12-25T11:21:27.231Z,6.10
2018-12-25T11:24:08.635Z,6.20
2018-12-25T11:33:01.414Z,6.50
2018-12-25T11:56:34.152Z,6.20
2018-12-25T12:20:09.325Z,6.40
2018-12-25T12:22:50.455Z,6.50
2018-12-25T12:58:34.902Z,6.30
2018-12-25T13:07:29.207Z,6.30
2018-12-25T13:57:54.366Z,6.20
2018-12-25T14:39:27.213Z,6.10
2018-12-25T15:05:35.008Z,6.00
2018-12-25T16:31:47.318Z,6.00
2018-12-25T16:37:40.720Z,6.00
2018-12-25T16:40:21.306Z,5.90
2018-12-25T16:57:56.365Z,6.00
2018-12-25T17:00:25.105Z,6.00
2018-12-25T17:20:00.153Z,6.10
2018-12-25T17:37:12.966Z,6.10
2018-12-25T17:42:54.781Z,6.10
2018-12-25T17:51:18.491Z,6.00
2018-12-25T17:54:10.704Z,6.10
2018-12-25T17:59:44.197Z,6.00
2018-12-25T18:05:00.794Z,6.00
2018-12-25T18:13:17.120Z,6.00
2018-12-25T18:21:55.416Z,6.00
2018-12-25T18:27:49.585Z,6.00
2018-12-25T18:36:29.950Z,6.00
2018-12-25T18:39:18.500Z,6.00
2018-12-25T18:42:06.663Z,6.00
2018-12-25T18:44:55.081Z,6.00
2018-12-25T18:56:06.494Z,6.00
2018-12-25T19:04:10.893Z,5.90
2018-12-25T19:09:46.765Z,6.00
2018-12-25T19:24:14.196Z,6.00
2018-12-25T19:26:42.935Z,5.90
2018-12-25T19:29:31.377Z,5.90
2018-12-25T19:32:19.440Z,5.90
2018-12-25T19:37:35.989Z,5.90
2018-12-25T19:40:24.154Z,5.90
2018-12-25T19:42:52.931Z,5.90
2018-12-25T19:48:29.021Z,6.00
2018-12-25T19:54:05.188Z,5.90
2018-12-25T20:05:36.041Z,5.90
2018-12-25T20:08:44.860Z,6.00
2018-12-25T20:11:52.298Z,5.90
2018-12-25T20:17:48.852Z,5.90
2018-12-25T20:29:27.717Z,5.90
2018-12-25T20:32:17.311Z,5.90
2018-12-25T20:35:24.798Z,6.00
2018-12-25T20:44:08.136Z,5.90
2018-12-25T20:50:03.342Z,5.90
2018-12-25T20:53:10.740Z,5.90
2018-12-25T21:01:54.644Z,5.90
2018-12-25T21:05:02.048Z,6.00
2018-12-25T21:10:58.794Z,5.90
2018-12-25T21:17:18.948Z,5.90
2018-12-25T21:20:26.345Z,5.90
2018-12-25T21:23:33.772Z,5.90
2018-12-25T21:34:25.864Z,6.00
2018-12-25T21:39:43.182Z,6.00
2018-12-25T21:42:31.444Z,6.00
2018-12-25T21:47:48.020Z,6.00
2018-12-25T21:50:16.793Z,6.00
2018-12-25T21:53:06.438Z,6.00
2018-12-25T21:55:35.273Z,6.00
2018-12-25T21:58:04.035Z,6.00
2018-12-25T22:00:35.268Z,6.00
2018-12-25T22:03:03.846Z,6.00
2018-12-25T22:05:32.833Z,6.00
2018-12-25T22:22:59.228Z,6.00
2018-12-25T22:37:36.128Z,6.10
2018-12-25T22:49:28.990Z,6.00
2018-12-25T23:22:02.956Z,6.10
